createdAt,value
2018-07-16T00:01:06.133Z,86.39
2018-07-16T00:03:36.579Z,85.96
2018-07-16T00:06:07.022Z,86.39
2018-07-16T00:08:37.334Z,86.07
2018-07-16T00:11:08.048Z,86.95
2018-07-16T00:13:38.569Z,88.88
2018-07-16T00:16:08.924Z,88.25
2018-07-16T00:18:39.657Z,88.52
2018-07-16T00:21:09.992Z,88.91
2018-07-16T00:23:40.374Z,88.32
2018-07-16T00:26:10.956Z,88.22
2018-07-16T00:28:41.286Z,88.45
2018-07-16T00:31:11.960Z,88.08
2018-07-16T00:33:42.735Z,88.28
2018-07-16T00:36:12.954Z,88.33
2018-07-16T00:38:43.327Z,88.51
2018-07-16T00:41:13.928Z,88.81
2018-07-16T00:43:44.295Z,87.04
2018-07-16T00:46:14.735Z,88.12
2018-07-16T00:48:45.306Z,88.53
2018-07-16T00:51:15.689Z,89.02
2018-07-16T00:53:46.017Z,88.47
2018-07-16T00:56:16.776Z,88.34
2018-07-16T00:58:47.087Z,88.03
2018-07-16T01:01:17.405Z,88.13
2018-07-16T01:03:47.831Z,89.66
2018-07-16T01:06:18.102Z,90.43
2018-07-16T01:08:48.555Z,90.97
2018-07-16T01:11:19.279Z,91.77
2018-07-16T01:13:49.699Z,92.12
2018-07-16T01:16:20.219Z,90.50
2018-07-16T01:18:50.548Z,90.99
2018-07-16T01:21:20.793Z,90.45
2018-07-16T01:23:51.095Z,90.52
2018-07-16T01:26:21.544Z,91.11
2018-07-16T01:28:51.954Z,91.17
2018-07-16T01:31:22.268Z,90.34
2018-07-16T01:33:52.733Z,90.89
2018-07-16T01:36:23.194Z,91.07
2018-07-16T01:38:53.464Z,91.64
2018-07-16T01:41:23.869Z,91.08
2018-07-16T01:43:54.302Z,91.82
2018-07-16T01:46:24.797Z,91.80
2018-07-16T01:48:55.403Z,91.62
2018-07-16T01:51:25.957Z,91.91
2018-07-16T01:53:56.477Z,91.02
2018-07-16T01:56:26.835Z,91.20
2018-07-16T01:58:57.291Z,91.46
2018-07-16T02:01:28.116Z,91.23
2018-07-16T02:03:58.495Z,90.65
2018-07-16T02:06:29.212Z,90.26
2018-07-16T02:08:59.556Z,90.60
2018-07-16T02:11:29.903Z,90.93
2018-07-16T02:14:00.819Z,91.11
2018-07-16T02:16:31.110Z,91.85
2018-07-16T02:19:01.432Z,91.63
2018-07-16T02:21:32.467Z,91.44
2018-07-16T02:24:02.783Z,90.94
2018-07-16T02:26:33.057Z,90.79
2018-07-16T02:29:03.405Z,89.79
2018-07-16T02:31:33.632Z,89.70
2018-07-16T02:34:04.101Z,89.06
2018-07-16T02:36:34.635Z,89.26
2018-07-16T02:39:05.402Z,89.13
2018-07-16T02:41:35.702Z,88.95
2018-07-16T02:44:06.132Z,88.97
2018-07-16T02:46:36.641Z,89.64
2018-07-16T02:49:07.223Z,88.48
2018-07-16T02:51:37.546Z,89.41
2018-07-16T02:54:08.139Z,90.09
2018-07-16T02:56:38.595Z,90.84
2018-07-16T02:59:09.141Z,90.58
2018-07-16T03:01:39.491Z,90.31
2018-07-16T03:04:09.791Z,89.48
2018-07-16T03:06:40.150Z,90.17
2018-07-16T03:09:10.474Z,90.31
2018-07-16T03:11:40.903Z,90.02
2018-07-16T03:14:11.498Z,90.58
2018-07-16T03:16:41.792Z,90.21
2018-07-16T03:19:12.382Z,90.46
2018-07-16T03:21:42.650Z,90.59
2018-07-16T03:24:13.449Z,90.94
2018-07-16T03:26:43.908Z,90.74
2018-07-16T03:29:14.330Z,90.94
2018-07-16T03:31:44.687Z,91.32
2018-07-16T03:34:15.012Z,90.57
2018-07-16T03:36:45.407Z,89.67
2018-07-16T03:39:15.653Z,89.33
2018-07-16T03:41:45.934Z,87.57
2018-07-16T03:44:16.393Z,87.81
2018-07-16T03:46:46.700Z,87.10
2018-07-16T03:49:17.079Z,85.95
2018-07-16T03:51:47.542Z,84.28
2018-07-16T03:54:17.866Z,81.89
2018-07-16T03:56:48.512Z,79.36
2018-07-16T03:59:19.161Z,78.09
2018-07-16T04:01:49.467Z,75.78
2018-07-16T04:04:20.094Z,74.19
2018-07-16T04:06:50.293Z,72.82
2018-07-16T04:09:20.837Z,72.08
2018-07-16T04:11:51.216Z,69.18
2018-07-16T04:14:21.978Z,68.63
2018-07-16T04:16:52.265Z,67.88
2018-07-16T04:19:22.870Z,65.16
2018-07-16T04:21:53.363Z,65.06
2018-07-16T04:24:23.856Z,65.85
2018-07-16T04:26:54.238Z,66.82
2018-07-16T04:29:24.795Z,68.78
2018-07-16T04:31:55.444Z,70.88
2018-07-16T04:34:25.795Z,73.35
2018-07-16T04:36:56.360Z,73.47
2018-07-16T04:39:26.752Z,73.65
2018-07-16T04:41:57.177Z,74.51
2018-07-16T04:44:27.749Z,75.29
2018-07-16T04:46:58.083Z,74.57
2018-07-16T04:49:28.484Z,71.50
2018-07-16T04:51:58.692Z,70.44
2018-07-16T04:54:29.062Z,70.37
2018-07-16T04:56:59.650Z,70.62
2018-07-16T04:59:29.912Z,69.49
2018-07-16T05:02:00.324Z,67.68
2018-07-16T05:04:30.626Z,65.81
2018-07-16T05:07:00.983Z,63.54
2018-07-16T05:09:31.314Z,63.23
2018-07-16T05:12:01.555Z,62.45
2018-07-16T05:14:32.085Z,59.58
2018-07-16T05:17:02.441Z,56.28
2018-07-16T05:19:32.739Z,52.47
2018-07-16T05:22:02.994Z,50.72
2018-07-16T05:24:33.432Z,49.12
2018-07-16T05:27:03.690Z,48.33
2018-07-16T05:30:05.777Z,47.70
2018-07-16T05:32:36.207Z,48.02
2018-07-16T05:35:06.378Z,45.25
2018-07-16T05:37:36.769Z,46.96
2018-07-16T05:40:07.240Z,46.08
2018-07-16T05:42:37.819Z,44.65
2018-07-16T05:45:08.040Z,42.81
2018-07-16T05:47:41.872Z,43.13
2018-07-16T05:50:12.391Z,40.66
2018-07-16T05:52:42.780Z,41.21
2018-07-16T05:55:13.158Z,39.77
2018-07-16T05:57:43.488Z,39.80
2018-07-16T06:00:14.187Z,39.48
2018-07-16T06:02:44.342Z,39.84
2018-07-16T06:05:14.869Z,38.69
2018-07-16T06:07:45.255Z,36.54
2018-07-16T06:10:15.776Z,37.21
2018-07-16T06:12:46.149Z,37.14
2018-07-16T06:15:16.519Z,37.81
2018-07-16T06:17:46.930Z,36.34
2018-07-16T06:20:17.266Z,36.02
2018-07-16T06:22:48.345Z,35.93
2018-07-16T06:25:18.731Z,36.31
2018-07-16T06:27:49.181Z,35.28
2018-07-16T06:30:19.804Z,36.39
2018-07-16T06:32:50.166Z,35.61
2018-07-16T06:35:20.710Z,36.74
2018-07-16T06:37:51.078Z,34.62
2018-07-16T06:40:21.732Z,35.21
2018-07-16T06:42:52.140Z,35.23
2018-07-16T06:45:22.646Z,35.24
2018-07-16T06:47:53.049Z,35.09
2018-07-16T06:50:23.573Z,34.38
2018-07-16T06:52:54.043Z,35.14
2018-07-16T06:55:24.467Z,35.13
2018-07-16T06:57:55.019Z,34.70
2018-07-16T07:00:26.135Z,33.58
2018-07-16T07:02:56.438Z,31.74
2018-07-16T07:05:26.717Z,30.85
2018-07-16T07:07:57.115Z,30.38
2018-07-16T07:10:27.591Z,32.94
2018-07-16T07:12:58.102Z,32.01
2018-07-16T07:15:28.315Z,30.03
2018-07-16T07:17:58.749Z,30.73
2018-07-16T07:20:29.044Z,30.33
2018-07-16T07:22:59.399Z,30.21
2018-07-16T07:25:29.638Z,29.60
2018-07-16T07:28:00.175Z,28.85
2018-07-16T07:30:30.449Z,28.73
2018-07-16T07:33:00.894Z,28.48
2018-07-16T07:35:31.623Z,27.76
2018-07-16T07:38:01.912Z,27.64
2018-07-16T07:40:32.629Z,27.84
2018-07-16T07:43:03.037Z,27.31
2018-07-16T07:45:33.580Z,27.57
2018-07-16T07:48:04.420Z,27.08
2018-07-16T07:50:34.593Z,28.15
2018-07-16T07:53:05.073Z,30.40
2018-07-16T07:55:35.760Z,30.12
2018-07-16T07:58:06.199Z,27.69
2018-07-16T08:00:36.521Z,27.76
2018-07-16T08:03:07.031Z,28.69
2018-07-16T08:05:37.524Z,28.23
2018-07-16T08:08:07.882Z,29.41
2018-07-16T08:10:38.322Z,29.70
2018-07-16T08:13:08.731Z,28.26
2018-07-16T08:15:39.683Z,25.36
2018-07-16T08:18:10.248Z,26.26
2018-07-16T08:20:41.349Z,26.16
2018-07-16T08:23:11.995Z,27.13
2018-07-16T08:25:42.620Z,25.85
2018-07-16T08:28:13.138Z,25.42
2018-07-16T08:30:43.494Z,26.15
2018-07-16T08:33:13.956Z,26.50
2018-07-16T08:35:44.709Z,27.03
2018-07-16T08:38:15.032Z,27.56
2018-07-16T08:40:45.447Z,24.95
2018-07-16T08:43:15.775Z,24.86
2018-07-16T08:45:47.072Z,26.56
2018-07-16T08:48:17.670Z,26.59
2018-07-16T08:50:47.972Z,26.88
2018-07-16T08:53:18.328Z,26.08
2018-07-16T08:55:48.644Z,26.50
2018-07-16T08:58:18.981Z,24.96
2018-07-16T09:00:49.583Z,24.51
2018-07-16T09:03:20.015Z,24.21
2018-07-16T09:05:56.440Z,22.61
2018-07-16T09:08:26.968Z,22.22
2018-07-16T09:10:57.631Z,24.11
2018-07-16T09:13:28.189Z,24.12
2018-07-16T09:15:58.628Z,22.31
2018-07-16T09:18:28.975Z,25.58
2018-07-16T09:20:59.593Z,22.63
2018-07-16T09:23:30.069Z,23.24
2018-07-16T09:26:00.403Z,22.06
2018-07-16T09:28:30.701Z,22.63
2018-07-16T09:31:01.508Z,22.55
2018-07-16T09:33:31.845Z,24.33
2018-07-16T09:36:02.367Z,23.79
2018-07-16T09:38:32.865Z,24.16
2018-07-16T09:41:03.403Z,23.29
2018-07-16T09:43:33.870Z,23.64
2018-07-16T09:46:04.319Z,24.73
2018-07-16T09:48:34.855Z,24.94
2018-07-16T09:51:05.304Z,23.87
2018-07-16T09:53:35.778Z,26.14
2018-07-16T09:56:06.388Z,25.85
2018-07-16T09:58:36.842Z,24.98
2018-07-16T10:01:13.437Z,24.65
2018-07-16T10:03:43.778Z,24.52
2018-07-16T10:06:14.454Z,24.72
2018-07-16T10:08:45.027Z,22.94
2018-07-16T10:11:15.322Z,24.85
2018-07-16T10:13:45.933Z,24.97
2018-07-16T10:16:16.249Z,25.84
2018-07-16T10:18:46.819Z,25.24
2018-07-16T10:21:17.204Z,24.88
2018-07-16T10:23:48.931Z,26.41
2018-07-16T10:26:19.290Z,25.36
2018-07-16T10:28:49.888Z,24.87
2018-07-16T10:31:20.354Z,23.71
2018-07-16T10:33:51.137Z,23.08
2018-07-16T10:36:21.624Z,25.57
2018-07-16T10:38:51.987Z,25.16
2018-07-16T10:41:22.351Z,25.56
2018-07-16T10:43:52.729Z,25.88
2018-07-16T10:46:23.415Z,25.66
2018-07-16T10:48:53.746Z,24.39
2018-07-16T10:51:24.220Z,26.28
2018-07-16T10:53:54.551Z,25.69
2018-07-16T10:56:25.028Z,26.26
2018-07-16T10:58:55.543Z,27.38
2018-07-16T11:01:25.974Z,24.75
2018-07-16T11:03:56.644Z,25.31
2018-07-16T11:06:27.119Z,23.99
2018-07-16T11:08:57.545Z,26.06
2018-07-16T11:11:28.160Z,26.26
2018-07-16T11:13:58.739Z,26.49
2018-07-16T11:16:29.187Z,26.12
2018-07-16T11:18:59.565Z,25.45
2018-07-16T11:21:30.123Z,25.20
2018-07-16T11:24:00.530Z,26.05
2018-07-16T11:26:31.207Z,25.37
2018-07-16T11:29:01.686Z,24.99
2018-07-16T11:31:32.162Z,24.62
2018-07-16T11:34:02.636Z,24.52
2018-07-16T11:36:33.019Z,26.24
2018-07-16T11:39:03.692Z,28.05
2018-07-16T11:41:34.076Z,29.32
2018-07-16T11:44:06.431Z,31.59
2018-07-16T11:46:37.162Z,33.94
2018-07-16T11:49:07.660Z,34.90
2018-07-16T11:51:38.116Z,35.65
2018-07-16T11:54:08.649Z,34.88
2018-07-16T11:56:39.010Z,34.72
2018-07-16T11:59:09.588Z,35.40
2018-07-16T12:01:40.002Z,33.83
2018-07-16T12:04:10.858Z,34.28
2018-07-16T12:06:41.282Z,34.25
2018-07-16T12:09:11.743Z,33.01
2018-07-16T12:11:42.108Z,32.52
2018-07-16T12:14:12.614Z,32.78
2018-07-16T12:16:42.947Z,33.72
2018-07-16T12:19:13.368Z,33.63
2018-07-16T12:21:43.818Z,33.63
2018-07-16T12:24:14.278Z,33.62
2018-07-16T12:26:45.024Z,33.20
2018-07-16T12:29:15.497Z,33.91
2018-07-16T12:31:45.841Z,32.86
2018-07-16T12:34:16.435Z,34.10
2018-07-16T12:36:46.866Z,34.63
2018-07-16T12:39:17.271Z,34.59
2018-07-16T12:41:47.747Z,33.72
2018-07-16T12:44:18.362Z,34.36
2018-07-16T12:46:49.097Z,33.62
2018-07-16T12:49:19.435Z,33.97
2018-07-16T12:51:50.024Z,33.17
2018-07-16T12:54:20.439Z,33.57
2018-07-16T12:56:51.016Z,33.12
2018-07-16T12:59:21.562Z,31.58
2018-07-16T13:01:51.903Z,32.36
2018-07-16T13:04:22.323Z,33.18
2018-07-16T13:06:52.732Z,34.20
2018-07-16T13:09:24.204Z,32.93
2018-07-16T13:11:54.745Z,34.53
2018-07-16T13:14:25.120Z,34.41
2018-07-16T13:16:55.766Z,34.08
2018-07-16T13:19:26.168Z,34.38
2018-07-16T13:21:56.778Z,34.17
2018-07-16T13:24:27.346Z,34.92
2018-07-16T13:26:57.763Z,33.36
2018-07-16T13:29:28.378Z,33.61
2018-07-16T13:31:58.878Z,33.83
2018-07-16T13:34:29.240Z,32.14
2018-07-16T13:36:59.788Z,33.21
2018-07-16T13:39:30.250Z,31.84
2018-07-16T13:42:00.618Z,32.40
2018-07-16T13:44:31.056Z,33.06
2018-07-16T13:47:01.601Z,32.50
2018-07-16T13:49:32.234Z,32.78
2018-07-16T13:52:02.753Z,33.16
2018-07-16T13:54:33.071Z,32.55
2018-07-16T13:57:03.472Z,33.63
2018-07-16T13:59:33.962Z,33.64
2018-07-16T14:02:04.337Z,32.80
2018-07-16T14:04:34.691Z,32.96
2018-07-16T14:07:04.926Z,33.95
2018-07-16T14:09:35.239Z,33.46
2018-07-16T14:12:05.695Z,33.68
2018-07-16T14:14:36.077Z,33.77
2018-07-16T14:17:06.593Z,34.02
2018-07-16T14:19:37.031Z,34.48
2018-07-16T14:22:08.330Z,34.26
2018-07-16T14:24:38.750Z,34.04
2018-07-16T14:27:09.269Z,34.23
2018-07-16T14:29:39.627Z,33.98
2018-07-16T14:32:10.091Z,33.55
2018-07-16T14:34:40.419Z,34.02
2018-07-16T14:37:10.928Z,34.39
2018-07-16T14:39:41.239Z,34.02
2018-07-16T14:42:11.660Z,34.05
2018-07-16T14:44:42.085Z,34.85
2018-07-16T14:47:12.359Z,35.21
2018-07-16T14:49:42.787Z,34.93
2018-07-16T14:52:13.293Z,35.63
2018-07-16T14:54:43.903Z,35.25
2018-07-16T14:57:14.355Z,35.26
2018-07-16T14:59:45.112Z,35.66
2018-07-16T15:02:15.347Z,35.14
2018-07-16T15:04:45.965Z,34.72
2018-07-16T15:07:16.516Z,34.76
2018-07-16T15:09:46.798Z,33.92
2018-07-16T15:12:17.072Z,35.44
2018-07-16T15:14:47.415Z,35.35
2018-07-16T15:17:17.805Z,35.40
2018-07-16T15:19:48.096Z,34.14
2018-07-16T15:22:18.576Z,35.88
2018-07-16T15:24:48.964Z,36.03
2018-07-16T15:27:19.281Z,35.14
2018-07-16T15:29:49.675Z,34.84
2018-07-16T15:32:20.049Z,34.69
2018-07-16T15:34:50.399Z,34.11
2018-07-16T15:37:20.714Z,34.77
2018-07-16T15:39:50.899Z,34.85
2018-07-16T15:42:21.359Z,34.53
2018-07-16T15:44:51.934Z,34.21
2018-07-16T15:47:22.368Z,33.90
2018-07-16T15:49:52.788Z,33.32
2018-07-16T15:52:23.004Z,33.43
2018-07-16T15:54:53.288Z,33.92
2018-07-16T15:57:23.602Z,33.11
2018-07-16T15:59:54.123Z,32.87
2018-07-16T16:02:24.515Z,32.82
2018-07-16T16:04:55.487Z,33.13
2018-07-16T16:07:29.698Z,33.14
2018-07-16T16:10:00.400Z,33.10
2018-07-16T16:12:30.633Z,33.37
2018-07-16T16:15:00.936Z,32.86
2018-07-16T16:17:31.258Z,33.37
2018-07-16T16:20:01.745Z,33.20
2018-07-16T16:22:32.059Z,33.21
2018-07-16T16:25:02.673Z,34.06
2018-07-16T16:27:33.132Z,33.76
2018-07-16T16:30:03.601Z,32.61
2018-07-16T16:32:34.165Z,33.59
2018-07-16T16:35:04.668Z,33.70
2018-07-16T16:37:35.092Z,35.00
2018-07-16T16:40:05.711Z,35.06
2018-07-16T16:42:36.261Z,34.05
2018-07-16T16:45:06.756Z,34.21
2018-07-16T16:47:37.251Z,34.25
2018-07-16T16:50:07.730Z,34.30
2018-07-16T16:52:38.047Z,35.21
2018-07-16T16:55:08.244Z,34.87
2018-07-16T16:57:38.560Z,34.68
2018-07-16T17:00:08.926Z,35.48
2018-07-16T17:02:39.251Z,35.40
2018-07-16T17:05:09.611Z,35.52
2018-07-16T17:07:40.379Z,36.03
2018-07-16T17:10:10.865Z,36.77
2018-07-16T17:12:41.234Z,36.00
2018-07-16T17:15:11.892Z,35.99
2018-07-16T17:17:42.262Z,36.17
2018-07-16T17:20:12.581Z,36.39
2018-07-16T17:22:42.943Z,36.21
2018-07-16T17:25:13.435Z,36.28
2018-07-16T17:27:43.869Z,36.66
2018-07-16T17:30:14.357Z,38.05
2018-07-16T17:32:44.725Z,37.08
2018-07-16T17:35:15.284Z,38.31
2018-07-16T17:37:53.907Z,38.53
2018-07-16T17:40:24.316Z,39.43
2018-07-16T17:42:57.639Z,39.16
2018-07-16T17:45:27.917Z,39.19
2018-07-16T17:47:58.087Z,39.11
2018-07-16T17:50:28.739Z,41.73
2018-07-16T17:52:59.102Z,43.34
2018-07-16T17:55:29.407Z,44.07
2018-07-16T17:57:59.656Z,44.21
2018-07-16T18:00:29.908Z,44.04
2018-07-16T18:03:00.398Z,44.90
2018-07-16T18:05:30.718Z,44.82
2018-07-16T18:08:00.969Z,44.40
2018-07-16T18:10:31.454Z,45.58
2018-07-16T18:13:01.771Z,45.40
2018-07-16T18:15:32.320Z,45.70
2018-07-16T18:18:02.563Z,47.46
2018-07-16T18:20:33.072Z,48.55
2018-07-16T18:23:03.324Z,48.77
2018-07-16T18:25:33.871Z,49.66
2018-07-16T18:28:04.472Z,49.84
2018-07-16T18:30:34.812Z,51.27
2018-07-16T18:33:05.185Z,51.57
2018-07-16T18:35:35.497Z,52.25
2018-07-16T18:38:05.831Z,51.71
2018-07-16T18:40:36.250Z,51.95
2018-07-16T18:43:06.710Z,51.96
2018-07-16T18:45:37.090Z,51.89
2018-07-16T18:48:07.512Z,51.81
2018-07-16T18:50:38.003Z,52.96
2018-07-16T18:53:08.321Z,51.01
2018-07-16T18:55:38.664Z,50.88
2018-07-16T18:58:09.009Z,51.65
2018-07-16T19:00:39.397Z,50.78
2018-07-16T19:03:09.815Z,51.32
2018-07-16T19:05:40.270Z,52.29
2018-07-16T19:08:10.958Z,52.93
2018-07-16T19:10:41.251Z,53.35
2018-07-16T19:13:11.601Z,53.53
2018-07-16T19:15:42.397Z,53.83
2018-07-16T19:18:12.773Z,54.34
2018-07-16T19:20:43.363Z,54.69
2018-07-16T19:23:13.859Z,54.96
2018-07-16T19:25:44.130Z,54.59
2018-07-16T19:28:14.536Z,54.15
2018-07-16T19:30:45.009Z,54.03
2018-07-16T19:33:15.225Z,54.55
2018-07-16T19:35:45.570Z,54.78
2018-07-16T19:38:16.007Z,54.27
2018-07-16T19:40:46.224Z,54.17
2018-07-16T19:43:16.764Z,53.21
2018-07-16T19:45:47.065Z,52.74
2018-07-16T19:48:17.412Z,53.56
2018-07-16T19:50:47.707Z,53.46
2018-07-16T19:53:18.249Z,53.52
2018-07-16T19:55:48.732Z,54.51
2018-07-16T19:58:19.372Z,54.97
2018-07-16T20:00:49.786Z,54.43
2018-07-16T20:03:20.040Z,54.34
2018-07-16T20:05:50.610Z,54.44
2018-07-16T20:08:20.967Z,55.18
2018-07-16T20:10:51.313Z,55.60
2018-07-16T20:13:21.581Z,56.37
2018-07-16T20:15:52.056Z,56.85
2018-07-16T20:18:22.431Z,56.46
2018-07-16T20:20:55.947Z,57.16
2018-07-16T20:23:26.413Z,57.67
2018-07-16T20:25:57.913Z,57.69
2018-07-16T20:28:28.403Z,57.37
2018-07-16T20:30:59.047Z,57.97
2018-07-16T20:33:29.340Z,58.39
2018-07-16T20:35:59.802Z,57.76
2018-07-16T20:38:30.106Z,58.37
2018-07-16T20:41:01.426Z,58.71
2018-07-16T20:43:31.698Z,59.41
2018-07-16T20:46:02.169Z,59.08
2018-07-16T20:48:32.712Z,59.91
2018-07-16T20:51:03.042Z,60.07
2018-07-16T20:53:33.384Z,60.70
2018-07-16T20:56:03.994Z,60.18
2018-07-16T20:58:34.587Z,61.34
2018-07-16T21:01:05.093Z,61.09
2018-07-16T21:03:35.373Z,61.23
2018-07-16T21:06:05.594Z,61.72
2018-07-16T21:08:36.062Z,62.25
2018-07-16T21:11:06.292Z,61.70
2018-07-16T21:13:36.665Z,61.25
2018-07-16T21:16:07.347Z,61.70
2018-07-16T21:18:37.615Z,61.18
2018-07-16T21:21:08.040Z,61.14
2018-07-16T21:23:38.525Z,60.81
2018-07-16T21:26:09.132Z,60.81
2018-07-16T21:28:39.410Z,61.36
2018-07-16T21:31:09.774Z,61.10
2018-07-16T21:33:40.168Z,61.29
2018-07-16T21:36:10.518Z,61.26
2018-07-16T21:38:44.859Z,62.13
2018-07-16T21:41:15.540Z,61.79
2018-07-16T21:43:45.906Z,61.34
2018-07-16T21:46:16.596Z,61.51
2018-07-16T21:48:46.853Z,62.14
2018-07-16T21:51:17.169Z,62.55
2018-07-16T21:53:47.495Z,61.47
2018-07-16T21:56:17.973Z,61.74
2018-07-16T21:58:48.339Z,61.49
2018-07-16T22:01:19.003Z,62.01
2018-07-16T22:03:49.498Z,62.00
2018-07-16T22:06:19.838Z,61.68
2018-07-16T22:08:50.167Z,61.77
2018-07-16T22:11:20.683Z,62.03
2018-07-16T22:13:51.768Z,61.58
2018-07-16T22:16:22.232Z,62.53
2018-07-16T22:18:52.438Z,62.01
2018-07-16T22:21:22.684Z,61.56
2018-07-16T22:23:52.928Z,61.30
2018-07-16T22:26:23.407Z,61.87
2018-07-16T22:28:53.865Z,62.18
2018-07-16T22:31:24.184Z,62.51
2018-07-16T22:33:54.607Z,62.27
2018-07-16T22:36:24.800Z,62.14
2018-07-16T22:38:55.155Z,62.49
2018-07-16T22:41:25.456Z,63.48
2018-07-16T22:43:55.770Z,63.47
2018-07-16T22:46:26.372Z,62.86
2018-07-16T22:48:56.715Z,63.28
2018-07-16T22:51:26.918Z,63.23
2018-07-16T22:53:57.375Z,63.29
2018-07-16T22:56:27.835Z,63.95
2018-07-16T22:58:58.364Z,63.34
2018-07-16T23:01:28.754Z,63.84
2018-07-16T23:03:59.345Z,64.12
2018-07-16T23:06:29.641Z,63.69
2018-07-16T23:09:00.084Z,64.80
2018-07-16T23:11:30.597Z,65.33
2018-07-16T23:14:01.177Z,65.61
2018-07-16T23:16:31.507Z,65.21
2018-07-16T23:19:02.043Z,65.27
2018-07-16T23:21:32.599Z,65.78
2018-07-16T23:24:03.023Z,66.00
2018-07-16T23:26:33.518Z,65.64
2018-07-16T23:29:04.121Z,65.11
2018-07-16T23:31:34.683Z,65.67
2018-07-16T23:34:04.963Z,65.90
2018-07-16T23:36:35.427Z,66.94
2018-07-16T23:39:07.087Z,66.48
2018-07-16T23:41:37.407Z,66.50
2018-07-16T23:44:08.028Z,66.93
2018-07-16T23:46:38.376Z,67.37
2018-07-16T23:49:09.090Z,67.41
2018-07-16T23:51:39.463Z,67.72
2018-07-16T23:54:09.950Z,68.14
2018-07-16T23:56:40.501Z,68.11
2018-07-16T23:59:10.828Z,68.78
